Time;durP1;ratioP1;P1;durP2;ratioP2;P2;SDS_P1;SDS_P2;PMS_P1;PMS_P2;Temp;Humidity;BMP_temperature;BMP_pressure;BME280_temperature;BME280_humidity;BME280_pressure;Samples;Min_cycle;Max_cycle;Signal;HPM_P1;HPM_P2
2021/12/18 00:00:24;;;;;;;56.88;27.10;;;;;;;3.89;100.00;102134.59;5044631;28;20028;-72
2021/12/18 00:02:50;;;;;;;65.25;28.10;;;;;;;3.90;100.00;102129.94;5061680;28;20029;-71
2021/12/18 00:05:15;;;;;;;60.35;27.98;;;;;;;3.88;100.00;102132.94;5068160;28;20492;-72
2021/12/18 00:07:41;;;;;;;63.03;28.10;;;;;;;3.87;100.00;102144.13;5046868;28;20024;-72
2021/12/18 00:10:07;;;;;;;57.33;28.35;;;;;;;3.84;100.00;102139.88;5058552;28;20032;-71
2021/12/18 00:12:32;;;;;;;58.53;26.92;;;;;;;3.83;100.00;102134.63;5058255;28;20032;-72
2021/12/18 00:14:58;;;;;;;56.28;26.70;;;;;;;3.83;100.00;102142.84;5057534;28;20063;-72
2021/12/18 00:17:23;;;;;;;54.05;28.33;;;;;;;3.85;100.00;102138.84;5048962;28;20028;-72
2021/12/18 00:19:49;;;;;;;53.55;26.10;;;;;;;3.81;100.00;102138.41;5071440;28;20420;-72
2021/12/18 00:22:14;;;;;;;56.25;27.05;;;;;;;3.79;100.00;102129.53;5045279;28;20028;-72
2021/12/18 00:24:40;;;;;;;61.58;27.63;;;;;;;3.78;100.00;102132.47;5047508;28;20025;-72
2021/12/18 00:27:05;;;;;;;61.25;28.30;;;;;;;3.77;100.00;102137.13;5028375;28;20027;-72
2021/12/18 00:29:31;;;;;;;59.10;26.77;;;;;;;3.79;100.00;102135.03;5050279;28;20167;-71
2021/12/18 00:31:57;;;;;;;58.65;27.85;;;;;;;3.74;100.00;102132.06;5037569;28;20031;-72
2021/12/18 00:34:22;;;;;;;59.38;27.95;;;;;;;3.75;100.00;102131.00;5067096;28;20124;-71
2021/12/18 00:36:48;;;;;;;63.28;28.27;;;;;;;3.74;100.00;102134.81;5041597;28;20048;-72
2021/12/18 00:39:13;;;;;;;58.83;28.30;;;;;;;3.74;100.00;102133.97;5067229;28;20039;-71
2021/12/18 00:44:13;;;;;;;56.17;27.13;;;;;;;3.72;100.00;102136.06;5061545;28;20024;-72
2021/12/18 00:46:40;;;;;;;60.78;28.02;;;;;;;3.69;100.00;102137.34;5060827;28;20481;-72
2021/12/18 00:49:06;;;;;;;63.75;28.63;;;;;;;3.69;100.00;102136.50;5064675;28;20021;-72
2021/12/18 00:51:31;;;;;;;61.90;27.65;;;;;;;3.68;100.00;102138.41;5042661;28;20052;-71
2021/12/18 00:53:57;;;;;;;63.70;29.00;;;;;;;3.66;100.00;102136.91;5075059;28;20650;-72
2021/12/18 00:56:23;;;;;;;67.43;29.88;;;;;;;3.63;100.00;102132.69;5066647;28;20056;-72
2021/12/18 00:58:50;;;;;;;60.28;27.98;;;;;;;3.60;100.00;102124.00;5063324;28;20028;-72
2021/12/18 01:01:20;;;;;;;61.90;28.88;;;;;;;3.60;100.00;102124.84;5060993;28;20032;-72
2021/12/18 01:03:47;;;;;;;56.97;27.75;;;;;;;3.60;100.00;102132.25;5058693;28;20397;-72
2021/12/18 01:06:13;;;;;;;63.75;28.77;;;;;;;3.57;100.00;102125.28;5056568;28;20481;-72
2021/12/18 01:08:38;;;;;;;59.55;28.92;;;;;;;3.59;100.00;102125.88;5058503;28;20051;-72
2021/12/18 01:13:34;;;;;;;66.95;29.42;;;;;;;3.55;100.00;102116.38;5056980;28;20032;-72
2021/12/18 01:16:10;;;;;;;63.22;29.05;;;;;;;3.54;100.00;102125.69;5066100;28;20028;-71
2021/12/18 01:24:06;;;;;;;58.38;28.23;;;;;;;3.52;100.00;102130.53;5049654;28;20453;-72
2021/12/18 01:26:32;;;;;;;61.25;28.60;;;;;;;3.51;100.00;102126.94;5031751;28;20102;-72
2021/12/18 01:28:58;;;;;;;62.80;29.77;;;;;;;3.49;100.00;102133.72;5044635;28;20033;-72
2021/12/18 01:31:23;;;;;;;66.32;30.05;;;;;;;3.48;100.00;102127.38;5024345;28;20366;-72
2021/12/18 01:33:49;;;;;;;58.83;28.70;;;;;;;3.48;100.00;102132.00;5058182;28;20041;-72
2021/12/18 01:36:14;;;;;;;56.78;28.02;;;;;;;3.49;100.00;102133.72;5078117;28;20387;-72
2021/12/18 01:38:40;;;;;;;67.38;30.35;;;;;;;3.44;100.00;102137.06;5058421;28;20410;-71
2021/12/18 01:41:05;;;;;;;64.53;30.05;;;;;;;3.43;100.00;102131.78;5064346;28;20051;-71
2021/12/18 01:53:42;;;;;;;60.72;29.63;;;;;;;3.35;100.00;102130.91;5098383;28;20028;-72
2021/12/18 01:56:08;;;;;;;63.40;30.65;;;;;;;3.35;100.00;102122.69;5063428;28;20114;-72
2021/12/18 01:58:34;;;;;;;68.15;30.60;;;;;;;3.32;100.00;102128.59;5046739;28;20393;-72
2021/12/18 02:00:59;;;;;;;69.15;31.80;;;;;;;3.29;100.00;102126.25;5094199;28;20032;-71
2021/12/18 02:03:25;;;;;;;63.53;30.33;;;;;;;3.26;100.00;102123.94;5073764;28;20053;-72
2021/12/18 02:05:51;;;;;;;66.55;29.05;;;;;;;3.23;100.00;102128.97;5093336;28;20024;-72
2021/12/18 02:08:22;;;;;;;68.43;31.33;;;;;;;3.24;100.00;102136.16;5042531;28;20031;-72
2021/12/18 02:10:56;;;;;;;63.90;29.58;;;;;;;3.24;100.00;102131.50;5060135;28;20115;-72
2021/12/18 02:21:20;;;;;;;64.43;27.77;;;;;;;3.24;100.00;102116.94;5081350;28;20145;-72
2021/12/18 02:23:46;;;;;;;58.13;28.90;;;;;;;3.21;100.00;102120.94;5063719;28;20445;-72
2021/12/18 02:26:12;;;;;;;63.03;29.42;;;;;;;3.20;100.00;102119.22;5060364;28;20123;-72
2021/12/18 02:28:38;;;;;;;57.47;28.58;;;;;;;3.18;100.00;102118.63;5065726;28;20077;-72
2021/12/18 02:31:03;;;;;;;62.63;28.17;;;;;;;3.16;100.00;102117.97;5042881;28;20040;-72
2021/12/18 02:33:29;;;;;;;64.63;30.17;;;;;;;3.10;100.00;102118.78;5078324;28;20043;-72
2021/12/18 02:35:56;;;;;;;64.03;30.02;;;;;;;3.07;100.00;102109.06;5095013;28;20043;-72
2021/12/18 02:38:28;;;;;;;64.78;30.85;;;;;;;3.06;100.00;102112.00;5079676;28;20557;-72
2021/12/18 02:43:29;;;;;;;63.38;29.60;;;;;;;3.04;100.00;102114.13;5079148;28;20021;-72
2021/12/18 02:45:59;;;;;;;56.25;28.67;;;;;;;3.02;100.00;102108.00;5078264;28;20524;-72
2021/12/18 02:48:24;;;;;;;66.60;30.52;;;;;;;3.01;100.00;102103.53;5043859;28;20505;-72
2021/12/18 02:50:50;;;;;;;64.72;28.77;;;;;;;3.02;100.00;102106.09;5064211;28;20046;-72
2021/12/18 02:53:16;;;;;;;68.97;31.17;;;;;;;2.97;100.00;102102.25;5057387;28;20032;-72
2021/12/18 02:55:41;;;;;;;61.13;29.30;;;;;;;2.98;100.00;102092.97;5058128;28;20108;-72
2021/12/18 02:58:06;;;;;;;59.33;29.23;;;;;;;2.99;100.00;102092.78;5057591;28;20036;-73
2021/12/18 03:00:32;;;;;;;65.35;30.20;;;;;;;2.97;100.00;102100.34;5041982;28;20024;-72
2021/12/18 03:03:04;;;;;;;67.75;30.60;;;;;;;2.95;100.00;102093.38;5035194;28;20028;-72
2021/12/18 03:05:35;;;;;;;62.15;30.02;;;;;;;2.94;100.00;102088.94;5059319;28;20035;-73
2021/12/18 03:08:10;;;;;;;66.25;31.15;;;;;;;2.88;100.00;102083.22;5049235;28;20032;-72
2021/12/18 03:22:15;;;;;;;57.72;29.35;;;;;;;2.81;100.00;102074.09;5062137;28;20047;-72
2021/12/18 03:24:31;;;;;;;60.75;28.98;;;;;;;2.79;100.00;102068.00;5049713;28;20035;-72
2021/12/18 03:26:56;;;;;;;71.10;30.93;;;;;;;2.76;100.00;102065.66;5052603;28;20035;-72
2021/12/18 03:29:22;;;;;;;68.72;29.67;;;;;;;2.79;100.00;102070.75;5065533;28;20275;-72
2021/12/18 03:31:47;;;;;;;65.78;30.60;;;;;;;2.76;100.00;102068.41;5052903;28;20065;-72
2021/12/18 03:34:13;;;;;;;63.33;31.20;;;;;;;2.77;100.00;102069.25;5063673;28;20036;-72
2021/12/18 03:36:38;;;;;;;66.38;30.42;;;;;;;2.76;100.00;102070.28;5041810;28;20088;-72
2021/12/18 03:39:04;;;;;;;59.00;29.25;;;;;;;2.76;100.00;102067.53;5066426;28;20036;-72
2021/12/18 03:41:29;;;;;;;58.00;28.15;;;;;;;2.73;100.00;102071.56;5066044;28;20095;-72
2021/12/18 03:43:55;;;;;;;58.47;28.20;;;;;;;2.74;100.00;102075.16;5039678;28;20036;-72
2021/12/18 03:46:20;;;;;;;57.90;28.05;;;;;;;2.73;100.00;102071.56;5048026;28;20032;-72
2021/12/18 03:48:45;;;;;;;62.85;29.05;;;;;;;2.72;100.00;102067.09;5042840;28;20028;-72
2021/12/18 03:51:11;;;;;;;62.35;29.35;;;;;;;2.72;100.00;102078.09;5049882;28;20027;-71
2021/12/18 03:53:36;;;;;;;66.57;30.38;;;;;;;2.68;100.00;102079.56;5058917;28;20058;-72
2021/12/18 03:56:02;;;;;;;59.17;28.58;;;;;;;2.69;100.00;102075.75;5054580;28;20370;-72
2021/12/18 03:58:28;;;;;;;60.92;29.27;;;;;;;2.67;100.00;102081.47;5050964;28;20432;-72
2021/12/18 04:00:53;;;;;;;61.42;29.70;;;;;;;2.66;100.00;102082.47;5062796;28;20035;-72
2021/12/18 04:03:19;;;;;;;65.00;30.15;;;;;;;2.64;100.00;102081.00;5053668;28;20035;-72
2021/12/18 04:05:44;;;;;;;55.55;27.95;;;;;;;2.64;100.00;102075.50;5080932;28;20388;-71
2021/12/18 04:08:10;;;;;;;66.07;30.17;;;;;;;2.63;100.00;102079.31;5079655;28;20019;-71
2021/12/18 04:10:37;;;;;;;59.28;28.27;;;;;;;2.59;100.00;102080.75;5080847;28;20036;-72
2021/12/18 04:13:03;;;;;;;63.05;28.00;;;;;;;2.60;100.00;102083.31;5046138;28;20100;-72
2021/12/18 04:15:29;;;;;;;58.03;28.17;;;;;;;2.61;100.00;102081.41;5062287;28;20024;-72
2021/12/18 04:17:54;;;;;;;58.83;29.17;;;;;;;2.60;100.00;102079.72;5047118;28;20032;-71
2021/12/18 04:20:20;;;;;;;65.05;30.27;;;;;;;2.58;100.00;102088.13;5077475;28;20078;-72
2021/12/18 04:22:45;;;;;;;58.55;29.23;;;;;;;2.56;100.00;102081.16;5054241;28;20047;-72
2021/12/18 04:25:10;;;;;;;63.10;28.67;;;;;;;2.56;100.00;102083.91;5046467;28;20093;-72
2021/12/18 04:27:36;;;;;;;61.95;29.25;;;;;;;2.51;100.00;102081.78;5044984;28;20097;-72
2021/12/18 04:30:02;;;;;;;58.22;27.90;;;;;;;2.49;100.00;102083.03;5061169;28;20040;-72
2021/12/18 04:32:27;;;;;;;56.97;28.13;;;;;;;2.49;100.00;102081.13;5046543;28;20031;-72
2021/12/18 04:34:53;;;;;;;58.47;28.35;;;;;;;2.46;100.00;102084.28;5046095;28;21371;-72
2021/12/18 04:37:20;;;;;;;55.75;27.73;;;;;;;2.45;100.00;102077.09;5047880;28;20061;-72
2021/12/18 04:39:45;;;;;;;54.80;26.45;;;;;;;2.43;100.00;102077.31;5061613;28;20062;-72
2021/12/18 04:42:11;;;;;;;56.80;27.33;;;;;;;2.44;100.00;102073.50;5045887;28;20020;-72
2021/12/18 04:44:36;;;;;;;57.33;27.00;;;;;;;2.44;100.00;102078.97;5049216;28;20024;-72
2021/12/18 04:47:02;;;;;;;59.58;28.92;;;;;;;2.38;100.00;102071.56;5055711;28;20029;-72
2021/12/18 04:49:27;;;;;;;59.90;27.50;;;;;;;2.34;100.00;102078.53;5048193;28;20027;-72
2021/12/18 04:51:53;;;;;;;57.65;27.45;;;;;;;2.33;100.00;102078.72;5031036;28;20085;-72
2021/12/18 04:54:18;;;;;;;54.30;27.02;;;;;;;2.33;100.00;102074.06;5034710;28;20031;-72
2021/12/18 04:56:44;;;;;;;58.42;28.27;;;;;;;2.31;100.00;102081.63;5051093;28;20043;-72
2021/12/18 04:59:10;;;;;;;63.30;28.23;;;;;;;2.31;100.00;102081.63;5049686;28;20032;-72
2021/12/18 05:01:38;;;;;;;52.90;26.50;;;;;;;2.31;100.00;102078.06;5032070;28;20032;-72
2021/12/18 05:04:06;;;;;;;49.90;24.77;;;;;;;2.31;100.00;102080.78;5059415;28;20028;-72
2021/12/18 05:06:33;;;;;;;51.38;25.10;;;;;;;2.30;100.00;102079.94;5037451;28;20029;-72
2021/12/18 05:08:58;;;;;;;59.70;27.40;;;;;;;2.26;100.00;102081.41;5044699;28;20043;-72
2021/12/18 05:11:24;;;;;;;56.55;27.73;;;;;;;2.27;100.00;102085.00;5063308;28;20023;-72
2021/12/18 05:13:49;;;;;;;50.78;25.98;;;;;;;2.23;100.00;102081.81;5044840;28;20036;-72
2021/12/18 05:16:15;;;;;;;54.85;27.02;;;;;;;2.24;100.00;102083.50;5081758;28;20516;-72
2021/12/18 05:18:40;;;;;;;58.30;26.63;;;;;;;2.16;100.00;102086.41;5024513;28;20021;-72
2021/12/18 05:21:05;;;;;;;57.67;27.33;;;;;;;2.14;100.00;102091.22;5060174;28;20031;-72
2021/12/18 05:23:31;;;;;;;62.45;27.67;;;;;;;2.10;100.00;102090.78;5030059;28;20415;-72
2021/12/18 05:25:56;;;;;;;52.67;26.50;;;;;;;2.13;100.00;102075.84;5049010;28;20048;-72
2021/12/18 05:28:22;;;;;;;56.67;26.65;;;;;;;2.11;100.00;102080.66;5076439;28;20032;-72
2021/12/18 05:30:47;;;;;;;56.67;27.25;;;;;;;2.08;100.00;102081.06;5041788;28;20055;-72
2021/12/18 05:33:13;;;;;;;51.47;25.17;;;;;;;2.08;100.00;102070.94;5070842;28;20028;-72
2021/12/18 05:35:39;;;;;;;55.55;26.65;;;;;;;2.11;100.00;102077.91;5063268;28;20028;-72
2021/12/18 05:38:04;;;;;;;51.67;26.65;;;;;;;2.08;100.00;102083.81;5044590;28;20063;-72
2021/12/18 05:40:30;;;;;;;59.10;27.52;;;;;;;2.04;100.00;102083.38;5036508;28;20032;-72
2021/12/18 05:42:56;;;;;;;54.90;26.75;;;;;;;2.04;100.00;102086.09;5027979;28;20101;-72
2021/12/18 05:45:21;;;;;;;58.35;27.38;;;;;;;2.03;100.00;102089.03;5058218;28;20028;-73
2021/12/18 05:47:47;;;;;;;53.03;26.80;;;;;;;2.02;100.00;102088.19;5061407;28;20024;-72
2021/12/18 05:50:14;;;;;;;51.08;25.55;;;;;;;1.99;100.00;102092.16;5078227;28;20028;-73
2021/12/18 05:52:40;;;;;;;53.28;27.13;;;;;;;2.00;100.00;102095.75;5069323;28;20024;-72
2021/12/18 05:55:06;;;;;;;54.58;28.02;;;;;;;1.97;100.00;102102.47;5077205;28;20039;-72
2021/12/18 05:57:32;;;;;;;58.05;27.95;;;;;;;1.97;100.00;102107.97;5078333;28;20028;-72
2021/12/18 05:59:57;;;;;;;54.25;26.27;;;;;;;1.96;100.00;102111.75;5067908;28;20032;-72
2021/12/18 06:02:23;;;;;;;53.17;26.58;;;;;;;1.96;100.00;102116.41;5038774;28;20035;-72
2021/12/18 06:04:48;;;;;;;54.80;26.40;;;;;;;1.96;100.00;102116.41;5078541;28;20421;-72
2021/12/18 06:07:31;;;;;;;50.25;24.42;;;;;;;1.97;100.00;102109.84;5045542;28;20412;-72
2021/12/18 06:09:57;;;;;;;48.75;24.75;;;;;;;1.95;100.00;102109.19;5063689;28;20035;-72
2021/12/18 06:12:23;;;;;;;52.13;26.13;;;;;;;1.97;100.00;102107.97;5047006;28;20043;-72
2021/12/18 06:14:48;;;;;;;49.42;24.40;;;;;;;1.97;100.00;102101.63;5055124;28;20035;-72
2021/12/18 06:17:14;;;;;;;51.80;25.73;;;;;;;1.90;100.00;102101.59;5079341;28;20438;-72
2021/12/18 06:19:39;;;;;;;52.05;26.75;;;;;;;1.89;100.00;102108.09;5044772;28;20032;-71
2021/12/18 06:22:05;;;;;;;56.88;26.27;;;;;;;1.87;100.00;102102.00;5057837;28;20106;-72
2021/12/18 06:24:30;;;;;;;52.85;25.77;;;;;;;1.85;100.00;102112.28;5056640;28;20032;-72
2021/12/18 06:26:56;;;;;;;54.65;27.15;;;;;;;1.84;100.00;102113.34;5044231;28;20028;-72
2021/12/18 06:29:22;;;;;;;51.75;25.55;;;;;;;1.81;100.00;102113.72;5045023;28;20032;-72
2021/12/18 06:31:47;;;;;;;48.20;25.05;;;;;;;1.80;100.00;102114.78;5045860;28;20038;-72
2021/12/18 06:34:14;;;;;;;57.42;27.00;;;;;;;1.73;100.00;102127.56;5059395;28;20028;-72
2021/12/18 06:36:39;;;;;;;47.10;24.30;;;;;;;1.75;100.00;102131.78;5077346;28;20028;-72
2021/12/18 06:39:05;;;;;;;47.13;24.23;;;;;;;1.79;100.00;102126.78;5040207;28;20031;-71
2021/12/18 06:41:30;;;;;;;47.10;23.67;;;;;;;1.79;100.00;102126.78;5056415;28;20025;-72
2021/12/18 06:43:56;;;;;;;44.20;23.17;;;;;;;1.77;100.00;102132.44;5085302;28;20438;-72
2021/12/18 06:46:21;;;;;;;48.00;23.58;;;;;;;1.76;100.00;102132.66;5046314;28;20495;-72
2021/12/18 06:48:47;;;;;;;47.85;24.35;;;;;;;1.75;100.00;102133.69;5065762;28;20113;-72
2021/12/18 06:51:12;;;;;;;50.95;24.33;;;;;;;1.72;100.00;102128.59;5063303;28;20028;-72
2021/12/18 06:53:38;;;;;;;55.80;26.73;;;;;;;1.71;100.00;102140.59;5042202;28;20028;-72
2021/12/18 06:56:04;;;;;;;48.60;24.40;;;;;;;1.67;100.00;102131.06;5037296;28;20469;-72
2021/12/18 06:58:29;;;;;;;52.47;26.50;;;;;;;1.65;100.00;102133.19;5042698;28;20082;-72
2021/12/18 07:00:55;;;;;;;50.08;25.38;;;;;;;1.62;100.00;102142.63;5037421;28;20036;-72
2021/12/18 07:03:21;;;;;;;54.17;25.90;;;;;;;1.63;100.00;102143.47;5050516;28;20031;-72
2021/12/18 07:05:47;;;;;;;50.65;26.45;;;;;;;1.61;100.00;102140.06;5091958;28;20029;-72
2021/12/18 07:08:13;;;;;;;59.42;28.65;;;;;;;1.58;100.00;102141.31;5027106;28;20024;-72
2021/12/18 07:10:38;;;;;;;53.63;26.65;;;;;;;1.60;100.00;102141.13;5064972;28;20043;-72
2021/12/18 07:13:04;;;;;;;58.00;27.45;;;;;;;1.58;100.00;102135.00;5041446;28;20111;-72
2021/12/18 07:15:29;;;;;;;54.15;25.23;;;;;;;1.58;100.00;102145.94;5057639;28;20039;-72
2021/12/18 07:17:55;;;;;;;52.42;26.52;;;;;;;1.59;100.00;102143.03;5067250;28;20488;-72
2021/12/18 07:20:20;;;;;;;48.75;25.55;;;;;;;1.61;100.00;102142.81;5050780;28;20039;-72
2021/12/18 07:22:46;;;;;;;49.72;24.75;;;;;;;1.62;100.00;102145.38;5047074;28;20047;-72
2021/12/18 07:25:12;;;;;;;50.72;24.50;;;;;;;1.64;100.00;102147.91;5064751;28;20093;-72
2021/12/18 07:27:37;;;;;;;49.47;23.45;;;;;;;1.62;100.00;102150.84;5064105;28;20027;-72
2021/12/18 07:30:03;;;;;;;44.15;22.67;;;;;;;1.61;100.00;102151.03;5065448;28;20432;-70
2021/12/18 07:32:29;;;;;;;48.40;23.92;;;;;;;1.59;100.00;102153.97;5064497;28;20079;-72
2021/12/18 07:34:56;;;;;;;42.92;23.10;;;;;;;1.58;100.00;102155.00;5050916;28;20036;-72
2021/12/18 07:37:23;;;;;;;44.15;22.05;;;;;;;1.58;100.00;102159.63;5084002;28;20116;-72
2021/12/18 07:39:49;;;;;;;45.35;21.98;;;;;;;1.56;100.00;102155.22;5098711;28;20034;-72
2021/12/18 07:42:15;;;;;;;41.63;21.40;;;;;;;1.58;100.00;102162.38;5083426;28;20049;-72
2021/12/18 07:44:42;;;;;;;41.33;21.45;;;;;;;1.55;100.00;102163.59;5060717;28;20037;-69
2021/12/18 07:47:07;;;;;;;41.58;22.27;;;;;;;1.53;100.00;102158.34;5086396;28;20032;-72
2021/12/18 07:49:32;;;;;;;45.95;23.02;;;;;;;1.49;100.00;102161.66;5064724;28;20032;-72
2021/12/18 07:52:02;;;;;;;42.05;20.50;;;;;;;1.47;100.00;102163.72;5063335;28;20036;-72
2021/12/18 07:54:28;;;;;;;44.22;21.27;;;;;;;1.45;100.00;102163.94;5079909;28;20032;-70
2021/12/18 07:56:53;;;;;;;37.83;20.63;;;;;;;1.45;100.00;102163.94;5072863;28;20499;-72
2021/12/18 07:59:19;;;;;;;49.80;24.63;;;;;;;1.41;100.00;102159.88;5065536;28;20020;-72
2021/12/18 08:01:44;;;;;;;41.05;21.92;;;;;;;1.40;100.00;102166.41;5069188;28;20031;-71
2021/12/18 08:04:10;;;;;;;45.35;22.25;;;;;;;1.40;100.00;102171.88;5082555;28;20032;-72
2021/12/18 08:06:35;;;;;;;44.83;22.80;;;;;;;1.39;100.00;102172.91;5098026;28;20028;-72
2021/12/18 08:09:01;;;;;;;50.30;24.23;;;;;;;1.36;100.00;102165.06;5063214;28;20396;-72
2021/12/18 08:11:27;;;;;;;40.53;22.02;;;;;;;1.39;100.00;102175.63;5094280;28;20681;-71
2021/12/18 08:13:52;;;;;;;46.97;24.63;;;;;;;1.33;100.00;102179.16;5094948;28;20103;-72
2021/12/18 08:16:17;;;;;;;51.15;25.55;;;;;;;1.35;100.00;102182.53;5078650;28;20027;-72
2021/12/18 08:18:43;;;;;;;87.70;45.10;;;;;;;1.31;100.00;102184.00;5077172;28;20032;-72
2021/12/18 08:21:08;;;;;;;62.40;32.63;;;;;;;1.31;100.00;102186.72;5046039;28;20392;-72
2021/12/18 08:23:34;;;;;;;55.63;29.65;;;;;;;1.32;100.00;102192.00;5065284;28;20028;-72
2021/12/18 08:25:59;;;;;;;55.58;28.55;;;;;;;1.34;100.00;102189.06;5078579;28;20039;-72
2021/12/18 08:28:25;;;;;;;51.53;26.50;;;;;;;1.34;100.00;102194.56;5064226;28;20024;-71
2021/12/18 08:30:50;;;;;;;54.67;27.52;;;;;;;1.38;100.00;102195.00;5057424;28;20051;-72
2021/12/18 08:33:16;;;;;;;48.72;26.30;;;;;;;1.40;100.00;102193.78;5079038;28;20378;-72
2021/12/18 08:35:41;;;;;;;50.60;27.88;;;;;;;1.41;100.00;102198.19;5062273;28;20031;-71
2021/12/18 08:38:07;;;;;;;49.58;27.15;;;;;;;1.44;100.00;102197.81;5064925;28;20114;-73
2021/12/18 08:40:33;;;;;;;55.15;29.95;;;;;;;1.49;100.00;102202.72;5047569;28;20070;-72
2021/12/18 08:42:59;;;;;;;54.00;29.05;;;;;;;1.51;100.00;102197.91;5076355;28;20054;-71
2021/12/18 08:45:24;;;;;;;54.88;28.02;;;;;;;1.55;100.00;102194.56;5061217;28;20729;-69
2021/12/18 08:47:50;;;;;;;54.92;28.50;;;;;;;1.63;100.00;102199.09;5081568;28;20036;-69
2021/12/18 08:50:17;;;;;;;48.95;27.20;;;;;;;1.68;100.00;102193.03;5080088;28;20055;-69
2021/12/18 08:52:46;;;;;;;49.38;27.52;;;;;;;1.75;100.00;102196.69;5080901;28;20047;-72
2021/12/18 08:55:11;;;;;;;50.13;27.13;;;;;;;1.83;100.00;102196.56;5051675;28;20032;-73
2021/12/18 08:57:37;;;;;;;50.70;26.52;;;;;;;1.87;100.00;102192.41;5062098;28;20020;-75
2021/12/18 09:00:04;;;;;;;54.83;28.70;;;;;;;1.93;100.00;102205.31;5079220;28;20032;-74
2021/12/18 09:02:30;;;;;;;50.20;27.17;;;;;;;1.99;100.00;102196.31;5065288;28;20036;-73
2021/12/18 09:04:55;;;;;;;50.67;26.67;;;;;;;2.03;100.00;102193.16;5044086;28;20028;-74
2021/12/18 09:07:22;;;;;;;53.72;28.92;;;;;;;2.11;100.00;102190.28;5095332;28;20099;-71
2021/12/18 09:09:48;;;;;;;54.72;29.17;;;;;;;2.22;100.00;102195.25;5094172;28;20097;-72
2021/12/18 09:12:13;;;;;;;52.70;27.67;;;;;;;2.28;100.00;102191.72;5099157;28;20040;-72
2021/12/18 09:14:39;;;;;;;58.70;31.13;;;;;;;2.40;100.00;102190.13;5079353;28;20024;-71
2021/12/18 09:17:04;;;;;;;54.80;29.60;;;;;;;2.52;100.00;102195.06;5076417;28;20033;-72
2021/12/18 09:19:30;;;;;;;51.45;28.50;;;;;;;2.66;100.00;102191.38;5063092;28;20115;-72
2021/12/18 09:21:55;;;;;;;52.83;28.42;;;;;;;2.76;100.00;102199.22;5078863;28;20042;-72
2021/12/18 09:24:21;;;;;;;56.78;28.90;;;;;;;2.85;100.00;102200.78;5085322;28;20039;-72
2021/12/18 09:26:47;;;;;;;53.17;28.45;;;;;;;2.94;100.00;102196.81;5073932;28;20162;-71
2021/12/18 09:29:13;;;;;;;48.95;26.55;;;;;;;3.09;100.00;102200.31;5069742;28;20035;-72
2021/12/18 09:31:38;;;;;;;50.95;28.52;;;;;;;3.18;100.00;102191.91;5066901;28;20039;-72
2021/12/18 09:34:04;;;;;;;49.45;26.90;;;;;;;3.29;100.00;102188.56;5064133;28;20031;-71
2021/12/18 09:36:29;;;;;;;52.38;28.05;;;;;;;3.39;100.00;102185.44;5078090;28;20089;-72
2021/12/18 09:38:54;;;;;;;52.53;28.23;;;;;;;3.48;100.00;102186.94;5057595;28;20035;-72
2021/12/18 09:41:20;;;;;;;53.45;27.98;;;;;;;3.60;100.00;102196.28;5048433;28;20464;-72
2021/12/18 09:43:47;;;;;;;48.63;27.10;;;;;;;3.68;100.00;102190.59;5062686;28;20089;-72
2021/12/18 09:46:13;;;;;;;49.88;27.08;;;;;;;3.80;100.00;102196.34;5063498;28;20081;-72
2021/12/18 09:48:40;;;;;;;48.97;26.23;;;;;;;3.85;100.00;102204.81;5048235;28;20470;-72
2021/12/18 09:51:11;;;;;;;50.45;27.65;;;;;;;3.94;100.00;102213.72;5073398;28;20115;-72
2021/12/18 09:53:37;;;;;;;49.17;27.10;;;;;;;4.04;100.00;102208.66;5079350;28;20023;-72
2021/12/18 09:56:03;;;;;;;47.35;25.48;;;;;;;4.15;100.00;102213.53;5061194;28;20418;-72
2021/12/18 09:58:29;;;;;;;44.70;24.35;;;;;;;4.25;100.00;102216.69;5066757;28;20036;-71
2021/12/18 10:00:54;;;;;;;44.28;24.65;;;;;;;4.34;100.00;102219.25;5044823;28;20115;-71
2021/12/18 10:03:20;;;;;;;44.42;25.40;;;;;;;4.45;100.00;102218.63;5079486;28;20043;-74
2021/12/18 10:05:45;;;;;;;46.03;25.73;;;;;;;4.51;100.00;102212.25;5080056;28;20025;-71
2021/12/18 10:08:18;;;;;;;46.55;24.83;;;;;;;4.58;100.00;102210.38;5064424;28;20036;-70
2021/12/18 10:11:07;;;;;;;40.78;23.95;;;;;;;4.72;100.00;102218.63;5060963;28;20602;-71
2021/12/18 10:13:54;;;;;;;44.45;24.25;;;;;;;4.81;100.00;102222.81;5064059;28;20085;-70
2021/12/18 10:16:20;;;;;;;45.33;24.25;;;;;;;4.93;100.00;102229.34;5081645;28;20032;-71
2021/12/18 10:18:46;;;;;;;41.28;24.27;;;;;;;5.02;100.00;102217.09;5051552;28;20028;-71
2021/12/18 10:21:13;;;;;;;41.92;23.05;;;;;;;5.08;100.00;102216.22;5079002;28;20392;-70
2021/12/18 10:23:41;;;;;;;40.63;22.60;;;;;;;5.18;100.00;102215.75;5077566;28;20027;-70
2021/12/18 10:26:06;;;;;;;41.17;22.92;;;;;;;5.24;100.00;102211.31;5068662;28;20111;-70
2021/12/18 10:28:45;;;;;;;38.55;22.48;;;;;;;5.30;100.00;102208.50;5094569;28;20027;-70
2021/12/18 10:31:10;;;;;;;38.72;21.13;;;;;;;5.36;100.00;102224.16;5092258;28;20035;-70
2021/12/18 10:33:36;;;;;;;39.80;23.02;;;;;;;5.43;100.00;102221.38;5058779;28;20126;-70
2021/12/18 10:36:02;;;;;;;36.42;21.98;;;;;;;5.51;100.00;102232.16;5063243;28;20039;-71
2021/12/18 10:38:46;;;;;;;36.03;21.25;;;;;;;5.58;100.00;102226.63;5093938;28;20034;-70
2021/12/18 10:41:29;;;;;;;36.78;20.30;;;;;;;5.66;100.00;102226.38;5108312;28;20032;-70
2021/12/18 10:43:58;;;;;;;36.03;21.17;;;;;;;5.74;100.00;102225.25;5081656;28;20108;-70
2021/12/18 10:46:24;;;;;;;35.70;20.30;;;;;;;5.81;100.00;102221.41;5078130;28;20085;-70
2021/12/18 10:49:06;;;;;;;34.85;20.52;;;;;;;5.88;100.00;102232.44;5091201;28;20470;-70
2021/12/18 10:51:32;;;;;;;34.67;19.83;;;;;;;5.96;100.00;102232.19;5078416;28;20032;-70
2021/12/18 10:54:04;;;;;;;35.72;20.55;;;;;;;5.99;100.00;102231.75;5093403;28;20480;-70
2021/12/18 10:56:51;;;;;;;34.30;19.97;;;;;;;6.06;100.00;102225.34;5094947;28;20532;-70
2021/12/18 10:59:27;;;;;;;33.20;19.73;;;;;;;6.16;100.00;102222.94;5080304;28;20065;-70
2021/12/18 11:01:56;;;;;;;31.95;18.83;;;;;;;6.20;100.00;102224.19;5087461;28;20035;-70
2021/12/18 11:04:26;;;;;;;34.78;19.35;;;;;;;6.27;100.00;102219.47;5097518;28;20040;-70
2021/12/18 11:06:51;;;;;;;33.50;18.52;;;;;;;6.33;100.00;102218.56;5094927;28;20389;-70
2021/12/18 11:09:25;;;;;;;32.72;19.40;;;;;;;6.35;100.00;102221.97;5062017;28;20024;-71
2021/12/18 11:14:47;;;;;;;32.70;18.40;;;;;;;6.47;100.00;102225.69;5056360;28;20036;-71
2021/12/18 11:17:14;;;;;;;29.80;18.65;;;;;;;6.53;100.00;102228.59;5061263;28;20028;-71
2021/12/18 11:19:40;;;;;;;29.52;17.92;;;;;;;6.58;100.00;102239.81;5092079;28;20032;-70
2021/12/18 11:22:11;;;;;;;29.85;19.08;;;;;;;6.63;100.00;102234.44;5055619;28;20551;-70
2021/12/18 11:24:38;;;;;;;27.10;17.98;;;;;;;6.66;100.00;102221.06;5069997;28;20477;-70
2021/12/18 11:27:09;;;;;;;30.10;18.02;;;;;;;6.70;100.00;102224.19;5078359;28;20365;-70
2021/12/18 11:29:55;;;;;;;34.10;18.95;;;;;;;6.74;100.00;102214.38;5076682;28;20044;-71
2021/12/18 11:32:23;;;;;;;32.80;17.75;;;;;;;6.80;99.75;102210.72;5080971;28;20051;-71
2021/12/18 11:34:49;;;;;;;29.30;17.27;;;;;;;6.85;99.95;102204.50;5062237;28;20048;-71
2021/12/18 11:37:16;;;;;;;27.45;17.00;;;;;;;6.89;98.83;102212.13;5059179;28;20043;-71
2021/12/18 11:39:43;;;;;;;29.08;17.15;;;;;;;6.96;97.25;102211.19;5060994;28;20084;-71
2021/12/18 11:42:09;;;;;;;27.30;16.38;;;;;;;7.03;97.43;102212.00;5071597;28;20032;-71
2021/12/18 11:44:37;;;;;;;24.30;16.17;;;;;;;7.10;96.85;102208.09;5095785;28;20391;-71
2021/12/18 11:47:22;;;;;;;24.77;14.88;;;;;;;7.21;95.67;102211.13;5081313;28;20028;-71
2021/12/18 11:49:47;;;;;;;26.42;15.88;;;;;;;7.22;96.53;102205.41;5080355;28;20548;-71
2021/12/18 11:52:13;;;;;;;25.50;15.07;;;;;;;7.26;95.66;102201.09;5095091;28;20063;-71